sensor_id;sensor_type;location;lat;lon;timestamp;P1;durP1;ratioP1;P2;durP2;ratioP2
34573;SDS011;20809;49.594;8.734;2022-10-17T00:02:55;15.17;;;5.30;;
34573;SDS011;20809;49.594;8.734;2022-10-17T00:05:56;7.70;;;4.80;;
34573;SDS011;20809;49.594;8.734;2022-10-17T00:08:57;7.22;;;3.72;;
34573;SDS011;20809;49.594;8.734;2022-10-17T00:14:58;7.40;;;4.73;;
34573;SDS011;20809;49.594;8.734;2022-10-17T00:18:00;19.27;;;6.70;;
34573;SDS011;20809;49.594;8.734;2022-10-17T00:21:01;5.28;;;4.10;;
34573;SDS011;20809;49.594;8.734;2022-10-17T00:24:02;6.45;;;3.65;;
34573;SDS011;20809;49.594;8.734;2022-10-17T00:27:03;6.65;;;3.95;;
34573;SDS011;20809;49.594;8.734;2022-10-17T00:30:04;5.70;;;4.68;;
34573;SDS011;20809;49.594;8.734;2022-10-17T00:33:06;5.03;;;3.90;;
34573;SDS011;20809;49.594;8.734;2022-10-17T00:36:08;7.43;;;4.77;;
34573;SDS011;20809;49.594;8.734;2022-10-17T00:39:12;7.03;;;3.75;;
34573;SDS011;20809;49.594;8.734;2022-10-17T00:42:13;4.87;;;4.37;;
34573;SDS011;20809;49.594;8.734;2022-10-17T00:48:24;9.85;;;4.57;;
34573;SDS011;20809;49.594;8.734;2022-10-17T00:51:40;5.30;;;4.22;;
34573;SDS011;20809;49.594;8.734;2022-10-17T00:54:52;5.60;;;3.88;;
34573;SDS011;20809;49.594;8.734;2022-10-17T00:59:08;5.90;;;4.15;;
34573;SDS011;20809;49.594;8.734;2022-10-17T01:02:12;11.93;;;4.65;;
34573;SDS011;20809;49.594;8.734;2022-10-17T01:05:15;6.38;;;4.18;;
34573;SDS011;20809;49.594;8.734;2022-10-17T01:08:17;6.35;;;4.10;;
34573;SDS011;20809;49.594;8.734;2022-10-17T01:15:33;6.22;;;3.92;;
34573;SDS011;20809;49.594;8.734;2022-10-17T01:18:32;5.63;;;4.50;;
34573;SDS011;20809;49.594;8.734;2022-10-17T01:22:23;6.07;;;4.03;;
34573;SDS011;20809;49.594;8.734;2022-10-17T01:32:53;7.68;;;3.50;;
34573;SDS011;20809;49.594;8.734;2022-10-17T01:35:37;3.30;;;3.00;;
34573;SDS011;20809;49.594;8.734;2022-10-17T01:38:46;8.00;;;3.42;;
34573;SDS011;20809;49.594;8.734;2022-10-17T01:45:12;7.45;;;3.33;;
34573;SDS011;20809;49.594;8.734;2022-10-17T01:48:24;4.18;;;3.75;;
34573;SDS011;20809;49.594;8.734;2022-10-17T01:51:51;7.13;;;3.03;;
34573;SDS011;20809;49.594;8.734;2022-10-17T01:54:57;6.93;;;3.53;;
34573;SDS011;20809;49.594;8.734;2022-10-17T01:58:29;6.15;;;3.55;;
34573;SDS011;20809;49.594;8.734;2022-10-17T02:01:31;8.13;;;3.30;;
34573;SDS011;20809;49.594;8.734;2022-10-17T02:04:37;5.45;;;3.45;;
34573;SDS011;20809;49.594;8.734;2022-10-17T02:07:39;4.32;;;2.80;;
34573;SDS011;20809;49.594;8.734;2022-10-17T02:10:46;3.08;;;2.72;;
34573;SDS011;20809;49.594;8.734;2022-10-17T02:20:55;8.57;;;3.50;;
34573;SDS011;20809;49.594;8.734;2022-10-17T02:30:34;9.40;;;3.83;;
34573;SDS011;20809;49.594;8.734;2022-10-17T02:33:43;4.32;;;3.05;;
34573;SDS011;20809;49.594;8.734;2022-10-17T02:36:58;6.82;;;3.13;;
34573;SDS011;20809;49.594;8.734;2022-10-17T02:40:00;3.95;;;3.33;;
34573;SDS011;20809;49.594;8.734;2022-10-17T02:43:03;5.95;;;3.47;;
34573;SDS011;20809;49.594;8.734;2022-10-17T02:46:04;6.10;;;4.53;;
34573;SDS011;20809;49.594;8.734;2022-10-17T02:49:17;6.45;;;3.83;;
34573;SDS011;20809;49.594;8.734;2022-10-17T02:55:42;3.90;;;3.10;;
34573;SDS011;20809;49.594;8.734;2022-10-17T02:58:50;5.28;;;4.07;;
34573;SDS011;20809;49.594;8.734;2022-10-17T03:01:54;5.63;;;3.67;;
34573;SDS011;20809;49.594;8.734;2022-10-17T03:04:55;5.32;;;3.22;;
34573;SDS011;20809;49.594;8.734;2022-10-17T03:07:56;6.13;;;3.55;;
34573;SDS011;20809;49.594;8.734;2022-10-17T03:10:57;7.75;;;3.65;;
34573;SDS011;20809;49.594;8.734;2022-10-17T03:13:57;9.90;;;3.50;;
34573;SDS011;20809;49.594;8.734;2022-10-17T03:16:58;9.13;;;4.45;;
34573;SDS011;20809;49.594;8.734;2022-10-17T03:19:59;9.07;;;4.40;;
34573;SDS011;20809;49.594;8.734;2022-10-17T03:22:59;10.03;;;4.00;;
34573;SDS011;20809;49.594;8.734;2022-10-17T03:26:04;4.35;;;3.60;;
34573;SDS011;20809;49.594;8.734;2022-10-17T03:29:05;6.28;;;3.85;;
34573;SDS011;20809;49.594;8.734;2022-10-17T03:32:06;9.43;;;4.37;;
34573;SDS011;20809;49.594;8.734;2022-10-17T03:35:06;5.43;;;3.67;;
34573;SDS011;20809;49.594;8.734;2022-10-17T03:38:07;4.93;;;3.53;;
34573;SDS011;20809;49.594;8.734;2022-10-17T03:41:09;13.18;;;4.50;;
34573;SDS011;20809;49.594;8.734;2022-10-17T03:44:10;5.30;;;3.42;;
34573;SDS011;20809;49.594;8.734;2022-10-17T03:47:11;5.43;;;3.75;;
34573;SDS011;20809;49.594;8.734;2022-10-17T03:50:12;6.37;;;4.17;;
34573;SDS011;20809;49.594;8.734;2022-10-17T03:53:12;10.60;;;3.87;;
34573;SDS011;20809;49.594;8.734;2022-10-17T03:59:18;13.20;;;4.30;;
34573;SDS011;20809;49.594;8.734;2022-10-17T04:02:18;11.93;;;4.67;;
34573;SDS011;20809;49.594;8.734;2022-10-17T04:05:19;10.77;;;4.27;;
34573;SDS011;20809;49.594;8.734;2022-10-17T04:08:20;4.22;;;3.55;;
34573;SDS011;20809;49.594;8.734;2022-10-17T04:11:21;8.15;;;4.28;;
34573;SDS011;20809;49.594;8.734;2022-10-17T04:14:21;5.63;;;3.63;;
34573;SDS011;20809;49.594;8.734;2022-10-17T04:17:22;3.00;;;2.63;;
34573;SDS011;20809;49.594;8.734;2022-10-17T04:20:23;3.63;;;2.37;;
34573;SDS011;20809;49.594;8.734;2022-10-17T04:23:23;2.37;;;2.17;;
34573;SDS011;20809;49.594;8.734;2022-10-17T04:26:25;11.25;;;2.70;;
34573;SDS011;20809;49.594;8.734;2022-10-17T04:29:26;7.15;;;3.38;;
34573;SDS011;20809;49.594;8.734;2022-10-17T04:32:27;6.50;;;3.60;;
34573;SDS011;20809;49.594;8.734;2022-10-17T04:35:27;13.50;;;3.83;;
34573;SDS011;20809;49.594;8.734;2022-10-17T04:38:28;7.50;;;2.70;;
34573;SDS011;20809;49.594;8.734;2022-10-17T04:41:29;4.72;;;3.33;;
34573;SDS011;20809;49.594;8.734;2022-10-17T04:44:29;2.87;;;2.67;;
34573;SDS011;20809;49.594;8.734;2022-10-17T04:47:32;7.53;;;3.17;;
34573;SDS011;20809;49.594;8.734;2022-10-17T04:50:33;3.97;;;3.57;;
34573;SDS011;20809;49.594;8.734;2022-10-17T04:53:34;39.93;;;8.57;;
34573;SDS011;20809;49.594;8.734;2022-10-17T04:56:36;43.10;;;8.25;;
34573;SDS011;20809;49.594;8.734;2022-10-17T04:59:37;10.00;;;5.30;;
34573;SDS011;20809;49.594;8.734;2022-10-17T05:02:37;12.27;;;4.10;;
34573;SDS011;20809;49.594;8.734;2022-10-17T05:05:39;15.77;;;4.23;;
34573;SDS011;20809;49.594;8.734;2022-10-17T05:08:41;5.65;;;3.90;;
34573;SDS011;20809;49.594;8.734;2022-10-17T05:11:41;7.18;;;4.35;;
34573;SDS011;20809;49.594;8.734;2022-10-17T05:14:42;5.30;;;3.93;;
34573;SDS011;20809;49.594;8.734;2022-10-17T05:17:43;5.63;;;4.40;;
34573;SDS011;20809;49.594;8.734;2022-10-17T05:20:43;5.65;;;2.92;;
34573;SDS011;20809;49.594;8.734;2022-10-17T05:23:44;5.77;;;3.67;;
34573;SDS011;20809;49.594;8.734;2022-10-17T05:26:45;5.03;;;3.13;;
34573;SDS011;20809;49.594;8.734;2022-10-17T05:29:48;6.28;;;3.28;;
34573;SDS011;20809;49.594;8.734;2022-10-17T05:32:52;3.40;;;2.87;;
34573;SDS011;20809;49.594;8.734;2022-10-17T05:35:54;6.93;;;3.35;;
34573;SDS011;20809;49.594;8.734;2022-10-17T05:38:54;3.83;;;3.33;;
34573;SDS011;20809;49.594;8.734;2022-10-17T05:41:55;3.40;;;3.07;;
34573;SDS011;20809;49.594;8.734;2022-10-17T05:44:56;5.30;;;3.17;;
34573;SDS011;20809;49.594;8.734;2022-10-17T05:47:57;6.53;;;3.50;;
34573;SDS011;20809;49.594;8.734;2022-10-17T05:50:59;6.20;;;4.18;;
34573;SDS011;20809;49.594;8.734;2022-10-17T05:54:04;8.40;;;3.60;;
34573;SDS011;20809;49.594;8.734;2022-10-17T05:57:05;7.28;;;4.00;;
34573;SDS011;20809;49.594;8.734;2022-10-17T06:00:06;7.60;;;4.70;;
34573;SDS011;20809;49.594;8.734;2022-10-17T06:03:09;9.80;;;4.88;;
34573;SDS011;20809;49.594;8.734;2022-10-17T06:06:12;8.68;;;4.68;;
34573;SDS011;20809;49.594;8.734;2022-10-17T06:09:13;9.40;;;4.68;;
34573;SDS011;20809;49.594;8.734;2022-10-17T06:12:14;4.82;;;3.95;;
34573;SDS011;20809;49.594;8.734;2022-10-17T06:15:15;9.40;;;4.22;;
34573;SDS011;20809;49.594;8.734;2022-10-17T06:18:16;7.07;;;4.47;;
34573;SDS011;20809;49.594;8.734;2022-10-17T06:21:18;7.13;;;4.33;;
34573;SDS011;20809;49.594;8.734;2022-10-17T06:24:23;4.30;;;3.67;;
34573;SDS011;20809;49.594;8.734;2022-10-17T06:27:24;9.83;;;4.07;;
34573;SDS011;20809;49.594;8.734;2022-10-17T06:30:25;8.50;;;4.00;;
34573;SDS011;20809;49.594;8.734;2022-10-17T06:33:26;6.60;;;4.07;;
34573;SDS011;20809;49.594;8.734;2022-10-17T06:36:26;7.70;;;4.00;;
34573;SDS011;20809;49.594;8.734;2022-10-17T06:39:27;5.33;;;4.83;;
34573;SDS011;20809;49.594;8.734;2022-10-17T06:42:32;5.63;;;3.83;;
34573;SDS011;20809;49.594;8.734;2022-10-17T06:45:33;4.93;;;3.83;;
34573;SDS011;20809;49.594;8.734;2022-10-17T06:48:34;7.60;;;4.37;;
34573;SDS011;20809;49.594;8.734;2022-10-17T06:51:35;5.87;;;4.30;;
34573;SDS011;20809;49.594;8.734;2022-10-17T06:54:36;6.32;;;3.50;;
34573;SDS011;20809;49.594;8.734;2022-10-17T06:57:36;6.07;;;3.33;;
34573;SDS011;20809;49.594;8.734;2022-10-17T07:00:37;8.40;;;3.80;;
34573;SDS011;20809;49.594;8.734;2022-10-17T07:03:38;7.68;;;3.45;;
34573;SDS011;20809;49.594;8.734;2022-10-17T07:06:40;9.18;;;4.55;;
34573;SDS011;20809;49.594;8.734;2022-10-17T07:09:40;7.22;;;4.10;;
34573;SDS011;20809;49.594;8.734;2022-10-17T07:12:41;10.20;;;3.90;;
34573;SDS011;20809;49.594;8.734;2022-10-17T07:15:44;9.27;;;3.15;;
34573;SDS011;20809;49.594;8.734;2022-10-17T07:18:47;3.97;;;3.63;;
34573;SDS011;20809;49.594;8.734;2022-10-17T07:21:48;4.53;;;3.78;;
34573;SDS011;20809;49.594;8.734;2022-10-17T07:24:49;5.28;;;3.15;;
34573;SDS011;20809;49.594;8.734;2022-10-17T07:27:50;4.60;;;3.43;;
34573;SDS011;20809;49.594;8.734;2022-10-17T07:30:52;7.68;;;3.45;;
34573;SDS011;20809;49.594;8.734;2022-10-17T07:33:52;5.75;;;3.30;;
34573;SDS011;20809;49.594;8.734;2022-10-17T07:36:53;6.43;;;3.43;;
34573;SDS011;20809;49.594;8.734;2022-10-17T07:39:54;3.40;;;3.10;;
34573;SDS011;20809;49.594;8.734;2022-10-17T07:42:55;2.67;;;2.45;;
34573;SDS011;20809;49.594;8.734;2022-10-17T07:45:56;4.60;;;2.90;;
34573;SDS011;20809;49.594;8.734;2022-10-17T07:51:58;2.60;;;2.40;;
34573;SDS011;20809;49.594;8.734;2022-10-17T07:54:58;3.42;;;3.10;;
34573;SDS011;20809;49.594;8.734;2022-10-17T07:57:59;3.55;;;3.25;;
34573;SDS011;20809;49.594;8.734;2022-10-17T08:01:00;4.10;;;3.43;;
34573;SDS011;20809;49.594;8.734;2022-10-17T08:04:02;5.38;;;2.33;;
34573;SDS011;20809;49.594;8.734;2022-10-17T08:07:02;2.50;;;2.30;;
34573;SDS011;20809;49.594;8.734;2022-10-17T08:10:03;3.37;;;2.30;;
34573;SDS011;20809;49.594;8.734;2022-10-17T08:13:04;2.55;;;2.33;;
34573;SDS011;20809;49.594;8.734;2022-10-17T08:16:06;2.40;;;2.20;;
34573;SDS011;20809;49.594;8.734;2022-10-17T08:19:08;5.03;;;2.30;;
34573;SDS011;20809;49.594;8.734;2022-10-17T08:22:10;2.10;;;2.00;;
34573;SDS011;20809;49.594;8.734;2022-10-17T08:25:11;3.47;;;1.80;;
34573;SDS011;20809;49.594;8.734;2022-10-17T08:28:11;6.50;;;2.63;;
34573;SDS011;20809;49.594;8.734;2022-10-17T08:31:13;3.92;;;1.77;;
34573;SDS011;20809;49.594;8.734;2022-10-17T08:34:17;3.13;;;1.98;;
34573;SDS011;20809;49.594;8.734;2022-10-17T08:37:17;2.67;;;1.80;;
34573;SDS011;20809;49.594;8.734;2022-10-17T08:40:23;1.75;;;1.65;;
34573;SDS011;20809;49.594;8.734;2022-10-17T08:46:42;9.23;;;3.10;;
34573;SDS011;20809;49.594;8.734;2022-10-17T08:49:48;1.88;;;1.50;;
34573;SDS011;20809;49.594;8.734;2022-10-17T08:56:20;4.30;;;1.70;;
34573;SDS011;20809;49.594;8.734;2022-10-17T08:59:26;3.33;;;1.80;;
34573;SDS011;20809;49.594;8.734;2022-10-17T09:02:34;4.60;;;1.88;;
34573;SDS011;20809;49.594;8.734;2022-10-17T09:18:40;1.80;;;1.70;;
34573;SDS011;20809;49.594;8.734;2022-10-17T09:21:56;1.70;;;1.60;;
34573;SDS011;20809;49.594;8.734;2022-10-17T09:25:02;2.60;;;2.25;;
34573;SDS011;20809;49.594;8.734;2022-10-17T09:34:19;6.88;;;2.33;;
34573;SDS011;20809;49.594;8.734;2022-10-17T09:37:23;7.57;;;2.03;;
34573;SDS011;20809;49.594;8.734;2022-10-17T09:40:32;2.47;;;1.85;;
34573;SDS011;20809;49.594;8.734;2022-10-17T09:43:34;4.38;;;2.50;;
34573;SDS011;20809;49.594;8.734;2022-10-17T09:46:35;5.38;;;1.80;;
34573;SDS011;20809;49.594;8.734;2022-10-17T09:49:38;4.00;;;2.30;;
34573;SDS011;20809;49.594;8.734;2022-10-17T09:52:41;2.88;;;1.90;;
34573;SDS011;20809;49.594;8.734;2022-10-17T09:55:52;2.03;;;1.73;;
34573;SDS011;20809;49.594;8.734;2022-10-17T09:58:56;2.95;;;1.50;;
34573;SDS011;20809;49.594;8.734;2022-10-17T10:05:16;5.30;;;1.50;;
34573;SDS011;20809;49.594;8.734;2022-10-17T10:08:19;6.47;;;2.10;;
34573;SDS011;20809;49.594;8.734;2022-10-17T10:11:23;3.33;;;1.92;;
34573;SDS011;20809;49.594;8.734;2022-10-17T10:14:30;2.13;;;1.70;;
34573;SDS011;20809;49.594;8.734;2022-10-17T10:17:39;3.78;;;1.52;;
34573;SDS011;20809;49.594;8.734;2022-10-17T10:20:43;1.80;;;1.35;;
34573;SDS011;20809;49.594;8.734;2022-10-17T10:26:59;3.00;;;1.95;;
34573;SDS011;20809;49.594;8.734;2022-10-17T10:30:03;4.30;;;1.98;;
34573;SDS011;20809;49.594;8.734;2022-10-17T10:36:05;5.67;;;1.60;;
34573;SDS011;20809;49.594;8.734;2022-10-17T10:39:07;5.63;;;1.63;;
34573;SDS011;20809;49.594;8.734;2022-10-17T10:42:21;3.63;;;1.63;;
34573;SDS011;20809;49.594;8.734;2022-10-17T10:48:35;2.03;;;1.65;;
34573;SDS011;20809;49.594;8.734;2022-10-17T10:54:41;7.00;;;1.52;;
34573;SDS011;20809;49.594;8.734;2022-10-17T10:57:49;2.80;;;1.33;;
34573;SDS011;20809;49.594;8.734;2022-10-17T11:00:52;2.67;;;1.27;;
34573;SDS011;20809;49.594;8.734;2022-10-17T11:04:00;2.40;;;1.75;;
34573;SDS011;20809;49.594;8.734;2022-10-17T11:07:16;2.25;;;1.48;;
34573;SDS011;20809;49.594;8.734;2022-10-17T11:10:43;2.70;;;1.63;;
34573;SDS011;20809;49.594;8.734;2022-10-17T11:14:13;4.28;;;1.75;;
34573;SDS011;20809;49.594;8.734;2022-10-17T11:17:46;1.50;;;1.27;;
34573;SDS011;20809;49.594;8.734;2022-10-17T11:27:23;2.20;;;1.10;;
34573;SDS011;20809;49.594;8.734;2022-10-17T11:30:26;2.22;;;1.67;;
34573;SDS011;20809;49.594;8.734;2022-10-17T11:36:45;2.97;;;1.45;;
34573;SDS011;20809;49.594;8.734;2022-10-17T11:39:54;4.53;;;1.85;;
34573;SDS011;20809;49.594;8.734;2022-10-17T11:49:17;3.10;;;2.03;;
34573;SDS011;20809;49.594;8.734;2022-10-17T11:55:32;2.55;;;1.38;;
34573;SDS011;20809;49.594;8.734;2022-10-17T11:58:59;4.72;;;1.40;;
34573;SDS011;20809;49.594;8.734;2022-10-17T12:05:51;3.47;;;1.40;;
34573;SDS011;20809;49.594;8.734;2022-10-17T12:12:34;2.30;;;1.65;;
34573;SDS011;20809;49.594;8.734;2022-10-17T12:15:36;2.40;;;1.42;;
34573;SDS011;20809;49.594;8.734;2022-10-17T12:18:36;2.15;;;1.60;;
34573;SDS011;20809;49.594;8.734;2022-10-17T12:21:56;3.97;;;1.52;;
34573;SDS011;20809;49.594;8.734;2022-10-17T12:24:59;2.15;;;1.65;;
34573;SDS011;20809;49.594;8.734;2022-10-17T12:34:15;3.90;;;1.77;;
34573;SDS011;20809;49.594;8.734;2022-10-17T12:37:58;2.67;;;1.60;;
34573;SDS011;20809;49.594;8.734;2022-10-17T12:41:03;2.58;;;1.50;;
34573;SDS011;20809;49.594;8.734;2022-10-17T12:57:18;1.90;;;1.70;;
34573;SDS011;20809;49.594;8.734;2022-10-17T13:00:28;1.60;;;1.50;;
34573;SDS011;20809;49.594;8.734;2022-10-17T13:03:46;3.10;;;1.67;;
34573;SDS011;20809;49.594;8.734;2022-10-17T13:06:53;1.92;;;1.63;;
34573;SDS011;20809;49.594;8.734;2022-10-17T13:09:56;2.42;;;1.73;;
34573;SDS011;20809;49.594;8.734;2022-10-17T13:13:04;2.22;;;2.05;;
34573;SDS011;20809;49.594;8.734;2022-10-17T13:16:06;3.65;;;1.42;;
34573;SDS011;20809;49.594;8.734;2022-10-17T13:19:14;1.83;;;1.58;;
34573;SDS011;20809;49.594;8.734;2022-10-17T13:22:23;2.10;;;1.85;;
34573;SDS011;20809;49.594;8.734;2022-10-17T13:28:35;3.35;;;1.73;;
34573;SDS011;20809;49.594;8.734;2022-10-17T13:31:41;7.22;;;1.63;;
34573;SDS011;20809;49.594;8.734;2022-10-17T13:34:43;4.00;;;1.73;;
34573;SDS011;20809;49.594;8.734;2022-10-17T13:37:44;1.60;;;1.50;;
34573;SDS011;20809;49.594;8.734;2022-10-17T13:40:46;3.22;;;1.55;;
34573;SDS011;20809;49.594;8.734;2022-10-17T13:43:47;2.38;;;2.10;;
34573;SDS011;20809;49.594;8.734;2022-10-17T13:46:52;3.50;;;1.50;;
34573;SDS011;20809;49.594;8.734;2022-10-17T13:49:56;5.38;;;1.73;;
34573;SDS011;20809;49.594;8.734;2022-10-17T13:53:05;4.40;;;1.80;;
34573;SDS011;20809;49.594;8.734;2022-10-17T13:56:25;4.38;;;2.00;;
34573;SDS011;20809;49.594;8.734;2022-10-17T13:59:36;9.25;;;2.63;;
34573;SDS011;20809;49.594;8.734;2022-10-17T14:02:40;5.35;;;2.17;;
34573;SDS011;20809;49.594;8.734;2022-10-17T14:06:04;2.00;;;1.80;;
34573;SDS011;20809;49.594;8.734;2022-10-17T14:09:27;5.00;;;1.70;;
34573;SDS011;20809;49.594;8.734;2022-10-17T14:12:29;3.83;;;1.70;;
34573;SDS011;20809;49.594;8.734;2022-10-17T14:15:32;3.20;;;1.50;;
34573;SDS011;20809;49.594;8.734;2022-10-17T14:18:35;4.38;;;1.77;;
34573;SDS011;20809;49.594;8.734;2022-10-17T14:21:37;2.45;;;1.77;;
34573;SDS011;20809;49.594;8.734;2022-10-17T14:24:38;3.55;;;1.85;;
34573;SDS011;20809;49.594;8.734;2022-10-17T14:27:54;3.22;;;1.85;;
34573;SDS011;20809;49.594;8.734;2022-10-17T14:31:08;2.25;;;1.90;;
34573;SDS011;20809;49.594;8.734;2022-10-17T14:34:20;3.50;;;2.00;;
34573;SDS011;20809;49.594;8.734;2022-10-17T14:37:29;6.63;;;2.00;;
34573;SDS011;20809;49.594;8.734;2022-10-17T14:40:51;5.70;;;2.08;;
34573;SDS011;20809;49.594;8.734;2022-10-17T14:44:02;2.40;;;1.77;;
34573;SDS011;20809;49.594;8.734;2022-10-17T14:47:14;2.63;;;1.70;;
34573;SDS011;20809;49.594;8.734;2022-10-17T14:53:29;1.75;;;1.50;;
34573;SDS011;20809;49.594;8.734;2022-10-17T14:56:34;1.92;;;1.83;;
34573;SDS011;20809;49.594;8.734;2022-10-17T14:59:34;4.57;;;1.95;;
34573;SDS011;20809;49.594;8.734;2022-10-17T15:02:35;2.65;;;1.80;;
34573;SDS011;20809;49.594;8.734;2022-10-17T15:05:36;3.90;;;2.63;;
34573;SDS011;20809;49.594;8.734;2022-10-17T15:08:36;2.85;;;1.80;;
34573;SDS011;20809;49.594;8.734;2022-10-17T15:11:37;5.25;;;1.70;;
34573;SDS011;20809;49.594;8.734;2022-10-17T15:14:38;5.38;;;2.28;;
34573;SDS011;20809;49.594;8.734;2022-10-17T15:17:39;2.08;;;1.88;;
34573;SDS011;20809;49.594;8.734;2022-10-17T15:20:40;4.15;;;2.20;;
34573;SDS011;20809;49.594;8.734;2022-10-17T15:23:41;3.35;;;2.25;;
34573;SDS011;20809;49.594;8.734;2022-10-17T15:26:42;1.95;;;1.85;;
34573;SDS011;20809;49.594;8.734;2022-10-17T15:29:43;4.50;;;2.08;;
34573;SDS011;20809;49.594;8.734;2022-10-17T15:32:44;5.40;;;2.15;;
34573;SDS011;20809;49.594;8.734;2022-10-17T15:35:45;3.15;;;2.42;;
34573;SDS011;20809;49.594;8.734;2022-10-17T15:38:46;3.40;;;1.88;;
34573;SDS011;20809;49.594;8.734;2022-10-17T15:41:48;5.85;;;2.10;;
34573;SDS011;20809;49.594;8.734;2022-10-17T15:44:48;6.82;;;2.38;;
34573;SDS011;20809;49.594;8.734;2022-10-17T15:47:53;3.03;;;2.38;;
34573;SDS011;20809;49.594;8.734;2022-10-17T15:51:03;5.60;;;2.90;;
34573;SDS011;20809;49.594;8.734;2022-10-17T15:54:03;4.88;;;2.22;;
34573;SDS011;20809;49.594;8.734;2022-10-17T15:57:05;2.45;;;1.65;;
34573;SDS011;20809;49.594;8.734;2022-10-17T16:00:13;1.80;;;1.70;;
34573;SDS011;20809;49.594;8.734;2022-10-17T16:03:21;4.65;;;2.22;;
34573;SDS011;20809;49.594;8.734;2022-10-17T16:06:22;5.43;;;3.78;;
34573;SDS011;20809;49.594;8.734;2022-10-17T16:09:23;3.30;;;2.60;;
34573;SDS011;20809;49.594;8.734;2022-10-17T16:12:26;4.10;;;2.60;;
34573;SDS011;20809;49.594;8.734;2022-10-17T16:15:28;11.18;;;5.25;;
34573;SDS011;20809;49.594;8.734;2022-10-17T16:18:28;9.90;;;4.00;;
34573;SDS011;20809;49.594;8.734;2022-10-17T16:21:30;7.72;;;4.13;;
34573;SDS011;20809;49.594;8.734;2022-10-17T16:24:34;3.83;;;3.53;;
34573;SDS011;20809;49.594;8.734;2022-10-17T16:27:35;3.80;;;3.22;;
34573;SDS011;20809;49.594;8.734;2022-10-17T16:30:38;4.07;;;3.67;;
34573;SDS011;20809;49.594;8.734;2022-10-17T16:33:41;19.80;;;5.60;;
34573;SDS011;20809;49.594;8.734;2022-10-17T16:36:42;10.80;;;4.65;;
34573;SDS011;20809;49.594;8.734;2022-10-17T16:39:43;7.68;;;3.90;;
34573;SDS011;20809;49.594;8.734;2022-10-17T16:42:47;5.45;;;3.20;;
34573;SDS011;20809;49.594;8.734;2022-10-17T16:45:48;5.75;;;3.33;;
34573;SDS011;20809;49.594;8.734;2022-10-17T16:48:49;9.80;;;4.68;;
34573;SDS011;20809;49.594;8.734;2022-10-17T16:51:50;20.65;;;5.15;;
34573;SDS011;20809;49.594;8.734;2022-10-17T16:54:50;10.87;;;5.37;;
34573;SDS011;20809;49.594;8.734;2022-10-17T16:57:52;7.85;;;5.55;;
34573;SDS011;20809;49.594;8.734;2022-10-17T17:00:52;7.60;;;4.85;;
34573;SDS011;20809;49.594;8.734;2022-10-17T17:03:53;20.45;;;6.72;;
34573;SDS011;20809;49.594;8.734;2022-10-17T17:06:54;17.30;;;7.00;;
34573;SDS011;20809;49.594;8.734;2022-10-17T17:09:55;7.70;;;5.30;;
34573;SDS011;20809;49.594;8.734;2022-10-17T17:12:55;9.75;;;5.20;;
34573;SDS011;20809;49.594;8.734;2022-10-17T17:16:06;6.57;;;4.97;;
34573;SDS011;20809;49.594;8.734;2022-10-17T17:19:12;8.02;;;5.18;;
34573;SDS011;20809;49.594;8.734;2022-10-17T17:22:15;9.00;;;4.95;;
34573;SDS011;20809;49.594;8.734;2022-10-17T17:25:16;6.82;;;4.90;;
34573;SDS011;20809;49.594;8.734;2022-10-17T17:28:17;9.63;;;4.30;;
34573;SDS011;20809;49.594;8.734;2022-10-17T17:31:19;6.68;;;4.70;;
34573;SDS011;20809;49.594;8.734;2022-10-17T17:34:21;12.10;;;4.43;;
34573;SDS011;20809;49.594;8.734;2022-10-17T17:37:22;5.35;;;4.85;;
34573;SDS011;20809;49.594;8.734;2022-10-17T17:40:22;6.03;;;3.95;;
34573;SDS011;20809;49.594;8.734;2022-10-17T17:43:23;8.00;;;5.15;;
34573;SDS011;20809;49.594;8.734;2022-10-17T17:46:24;8.15;;;4.45;;
34573;SDS011;20809;49.594;8.734;2022-10-17T17:49:25;8.60;;;4.60;;
34573;SDS011;20809;49.594;8.734;2022-10-17T17:52:25;7.57;;;5.22;;
34573;SDS011;20809;49.594;8.734;2022-10-17T17:55:26;6.57;;;5.07;;
34573;SDS011;20809;49.594;8.734;2022-10-17T17:58:27;6.72;;;5.22;;
34573;SDS011;20809;49.594;8.734;2022-10-17T18:01:30;6.90;;;4.95;;
34573;SDS011;20809;49.594;8.734;2022-10-17T18:04:35;18.02;;;5.57;;
34573;SDS011;20809;49.594;8.734;2022-10-17T18:07:36;5.35;;;3.88;;
34573;SDS011;20809;49.594;8.734;2022-10-17T18:10:36;7.13;;;4.05;;
34573;SDS011;20809;49.594;8.734;2022-10-17T18:13:37;6.07;;;4.28;;
34573;SDS011;20809;49.594;8.734;2022-10-17T18:16:38;9.63;;;4.75;;
34573;SDS011;20809;49.594;8.734;2022-10-17T18:19:39;10.77;;;5.20;;
34573;SDS011;20809;49.594;8.734;2022-10-17T18:22:39;11.25;;;5.45;;
34573;SDS011;20809;49.594;8.734;2022-10-17T18:25:40;25.95;;;5.93;;
34573;SDS011;20809;49.594;8.734;2022-10-17T18:28:41;11.57;;;4.78;;
34573;SDS011;20809;49.594;8.734;2022-10-17T18:31:42;8.23;;;5.18;;
34573;SDS011;20809;49.594;8.734;2022-10-17T18:34:43;6.32;;;5.70;;
34573;SDS011;20809;49.594;8.734;2022-10-17T18:37:44;14.15;;;6.45;;
34573;SDS011;20809;49.594;8.734;2022-10-17T18:40:44;7.07;;;5.00;;
34573;SDS011;20809;49.594;8.734;2022-10-17T18:43:45;8.77;;;5.50;;
34573;SDS011;20809;49.594;8.734;2022-10-17T18:46:47;8.63;;;6.88;;
34573;SDS011;20809;49.594;8.734;2022-10-17T18:49:49;7.32;;;6.07;;
34573;SDS011;20809;49.594;8.734;2022-10-17T18:52:49;8.85;;;5.40;;
34573;SDS011;20809;49.594;8.734;2022-10-17T18:55:50;13.45;;;5.90;;
34573;SDS011;20809;49.594;8.734;2022-10-17T18:58:52;16.23;;;6.30;;
34573;SDS011;20809;49.594;8.734;2022-10-17T19:01:53;10.82;;;5.43;;
34573;SDS011;20809;49.594;8.734;2022-10-17T19:04:53;7.45;;;5.68;;
34573;SDS011;20809;49.594;8.734;2022-10-17T19:07:54;10.98;;;8.10;;
34573;SDS011;20809;49.594;8.734;2022-10-17T19:10:55;10.80;;;8.63;;
34573;SDS011;20809;49.594;8.734;2022-10-17T19:13:56;13.82;;;8.82;;
34573;SDS011;20809;49.594;8.734;2022-10-17T19:16:58;10.77;;;8.73;;
34573;SDS011;20809;49.594;8.734;2022-10-17T19:19:59;10.73;;;8.05;;
34573;SDS011;20809;49.594;8.734;2022-10-17T19:23:00;16.38;;;8.93;;
34573;SDS011;20809;49.594;8.734;2022-10-17T19:26:04;10.52;;;6.60;;
34573;SDS011;20809;49.594;8.734;2022-10-17T19:29:09;11.75;;;7.63;;
34573;SDS011;20809;49.594;8.734;2022-10-17T19:32:12;17.00;;;8.93;;
34573;SDS011;20809;49.594;8.734;2022-10-17T19:35:13;17.92;;;7.90;;
34573;SDS011;20809;49.594;8.734;2022-10-17T19:38:14;10.18;;;7.00;;
34573;SDS011;20809;49.594;8.734;2022-10-17T19:41:15;11.65;;;7.78;;
34573;SDS011;20809;49.594;8.734;2022-10-17T19:44:16;11.45;;;7.32;;
34573;SDS011;20809;49.594;8.734;2022-10-17T19:47:16;15.48;;;10.00;;
34573;SDS011;20809;49.594;8.734;2022-10-17T19:50:17;11.57;;;7.40;;
34573;SDS011;20809;49.594;8.734;2022-10-17T19:53:18;12.95;;;7.70;;
34573;SDS011;20809;49.594;8.734;2022-10-17T19:56:21;15.30;;;7.78;;
34573;SDS011;20809;49.594;8.734;2022-10-17T19:59:23;15.77;;;8.65;;
34573;SDS011;20809;49.594;8.734;2022-10-17T20:02:25;18.65;;;8.00;;
34573;SDS011;20809;49.594;8.734;2022-10-17T20:05:25;14.93;;;8.82;;
34573;SDS011;20809;49.594;8.734;2022-10-17T20:08:26;9.63;;;6.90;;
34573;SDS011;20809;49.594;8.734;2022-10-17T20:11:27;15.48;;;8.48;;
34573;SDS011;20809;49.594;8.734;2022-10-17T20:14:28;12.45;;;8.73;;
34573;SDS011;20809;49.594;8.734;2022-10-17T20:17:29;12.93;;;8.68;;
34573;SDS011;20809;49.594;8.734;2022-10-17T20:20:29;16.40;;;7.68;;
34573;SDS011;20809;49.594;8.734;2022-10-17T20:23:30;12.25;;;7.85;;
34573;SDS011;20809;49.594;8.734;2022-10-17T20:26:31;11.20;;;7.70;;
34573;SDS011;20809;49.594;8.734;2022-10-17T20:29:33;10.15;;;7.38;;
34573;SDS011;20809;49.594;8.734;2022-10-17T20:32:34;13.23;;;7.75;;
34573;SDS011;20809;49.594;8.734;2022-10-17T20:35:39;9.00;;;7.38;;
34573;SDS011;20809;49.594;8.734;2022-10-17T20:38:43;13.43;;;7.93;;
34573;SDS011;20809;49.594;8.734;2022-10-17T20:41:43;11.35;;;7.15;;
34573;SDS011;20809;49.594;8.734;2022-10-17T20:44:45;13.50;;;7.38;;